sensor_id;sensor_type;location;lat;lon;timestamp;P1;durP1;ratioP1;P2;durP2;ratioP2
23490;SDS011;14683;50.038;8.078;2023-10-08T02:59:08;6.90;;;3.88;;
23490;SDS011;14683;50.038;8.078;2023-10-08T03:02:11;5.15;;;3.80;;
23490;SDS011;14683;50.038;8.078;2023-10-08T03:05:30;5.97;;;3.90;;
23490;SDS011;14683;50.038;8.078;2023-10-08T03:08:38;5.63;;;3.80;;
23490;SDS011;14683;50.038;8.078;2023-10-08T03:11:41;4.43;;;3.38;;
23490;SDS011;14683;50.038;8.078;2023-10-08T03:14:48;5.90;;;3.20;;
23490;SDS011;14683;50.038;8.078;2023-10-08T03:18:09;5.93;;;3.47;;
23490;SDS011;14683;50.038;8.078;2023-10-08T03:21:11;4.93;;;3.40;;
23490;SDS011;14683;50.038;8.078;2023-10-08T03:24:21;6.10;;;3.85;;
23490;SDS011;14683;50.038;8.078;2023-10-08T03:27:35;5.00;;;3.45;;
23490;SDS011;14683;50.038;8.078;2023-10-08T03:30:42;5.70;;;3.63;;
23490;SDS011;14683;50.038;8.078;2023-10-08T03:33:54;7.28;;;3.80;;
23490;SDS011;14683;50.038;8.078;2023-10-08T03:36:56;4.80;;;3.40;;
23490;SDS011;14683;50.038;8.078;2023-10-08T03:40:06;5.05;;;3.70;;
23490;SDS011;14683;50.038;8.078;2023-10-08T03:43:25;4.68;;;3.55;;
23490;SDS011;14683;50.038;8.078;2023-10-08T03:46:35;5.30;;;3.67;;
23490;SDS011;14683;50.038;8.078;2023-10-08T03:49:40;5.78;;;3.60;;
23490;SDS011;14683;50.038;8.078;2023-10-08T03:52:46;4.97;;;3.75;;
23490;SDS011;14683;50.038;8.078;2023-10-08T03:55:49;5.72;;;3.63;;
23490;SDS011;14683;50.038;8.078;2023-10-08T03:58:52;6.03;;;3.78;;
23490;SDS011;14683;50.038;8.078;2023-10-08T04:01:55;5.82;;;3.78;;
23490;SDS011;14683;50.038;8.078;2023-10-08T04:05:16;9.30;;;3.60;;
23490;SDS011;14683;50.038;8.078;2023-10-08T04:08:20;6.05;;;3.60;;
23490;SDS011;14683;50.038;8.078;2023-10-08T04:11:41;6.07;;;3.60;;
23490;SDS011;14683;50.038;8.078;2023-10-08T04:14:52;8.02;;;3.83;;
23490;SDS011;14683;50.038;8.078;2023-10-08T04:17:56;7.00;;;3.60;;
23490;SDS011;14683;50.038;8.078;2023-10-08T04:20:58;5.30;;;3.20;;
23490;SDS011;14683;50.038;8.078;2023-10-08T04:24:05;5.72;;;3.70;;
23490;SDS011;14683;50.038;8.078;2023-10-08T04:27:12;4.63;;;3.28;;
23490;SDS011;14683;50.038;8.078;2023-10-08T04:30:16;7.57;;;3.92;;
23490;SDS011;14683;50.038;8.078;2023-10-08T04:33:17;5.75;;;3.85;;
23490;SDS011;14683;50.038;8.078;2023-10-08T04:36:20;7.57;;;3.92;;
23490;SDS011;14683;50.038;8.078;2023-10-08T04:39:21;5.88;;;3.65;;
23490;SDS011;14683;50.038;8.078;2023-10-08T04:42:27;4.28;;;3.47;;
23490;SDS011;14683;50.038;8.078;2023-10-08T04:45:28;3.63;;;3.25;;
23490;SDS011;14683;50.038;8.078;2023-10-08T04:48:34;6.15;;;3.90;;
23490;SDS011;14683;50.038;8.078;2023-10-08T04:51:37;6.20;;;4.00;;
23490;SDS011;14683;50.038;8.078;2023-10-08T04:54:44;6.50;;;3.70;;
23490;SDS011;14683;50.038;8.078;2023-10-08T04:57:52;4.90;;;3.93;;
23490;SDS011;14683;50.038;8.078;2023-10-08T05:00:54;5.28;;;3.50;;
23490;SDS011;14683;50.038;8.078;2023-10-08T05:04:00;5.50;;;3.53;;
23490;SDS011;14683;50.038;8.078;2023-10-08T05:07:01;7.97;;;4.07;;
23490;SDS011;14683;50.038;8.078;2023-10-08T05:10:17;7.30;;;3.53;;
23490;SDS011;14683;50.038;8.078;2023-10-08T05:13:24;6.75;;;3.72;;
23490;SDS011;14683;50.038;8.078;2023-10-08T05:16:33;6.18;;;3.85;;
23490;SDS011;14683;50.038;8.078;2023-10-08T05:19:45;7.60;;;3.80;;
23490;SDS011;14683;50.038;8.078;2023-10-08T05:22:56;6.57;;;4.22;;
23490;SDS011;14683;50.038;8.078;2023-10-08T05:26:17;5.60;;;3.75;;
23490;SDS011;14683;50.038;8.078;2023-10-08T05:29:31;7.10;;;4.05;;
23490;SDS011;14683;50.038;8.078;2023-10-08T05:33:10;5.23;;;3.70;;
23490;SDS011;14683;50.038;8.078;2023-10-08T05:36:25;5.97;;;4.03;;
23490;SDS011;14683;50.038;8.078;2023-10-08T05:39:35;5.95;;;3.80;;
23490;SDS011;14683;50.038;8.078;2023-10-08T05:42:39;6.93;;;3.95;;
23490;SDS011;14683;50.038;8.078;2023-10-08T05:45:47;5.05;;;3.67;;
23490;SDS011;14683;50.038;8.078;2023-10-08T05:49:08;7.38;;;4.07;;
23490;SDS011;14683;50.038;8.078;2023-10-08T05:52:09;7.63;;;4.30;;
23490;SDS011;14683;50.038;8.078;2023-10-08T05:55:27;5.13;;;3.70;;
23490;SDS011;14683;50.038;8.078;2023-10-08T05:58:34;6.47;;;4.00;;
23490;SDS011;14683;50.038;8.078;2023-10-08T06:01:46;7.93;;;3.55;;
23490;SDS011;14683;50.038;8.078;2023-10-08T06:04:47;5.30;;;3.60;;
23490;SDS011;14683;50.038;8.078;2023-10-08T06:08:14;7.82;;;4.10;;
23490;SDS011;14683;50.038;8.078;2023-10-08T06:11:22;5.65;;;3.70;;
23490;SDS011;14683;50.038;8.078;2023-10-08T06:14:45;6.10;;;4.00;;
23490;SDS011;14683;50.038;8.078;2023-10-08T06:18:05;5.43;;;4.40;;
23490;SDS011;14683;50.038;8.078;2023-10-08T06:21:08;7.45;;;3.95;;
23490;SDS011;14683;50.038;8.078;2023-10-08T06:24:10;6.72;;;4.30;;
23490;SDS011;14683;50.038;8.078;2023-10-08T06:27:17;11.57;;;4.10;;
23490;SDS011;14683;50.038;8.078;2023-10-08T06:30:21;6.10;;;3.88;;
23490;SDS011;14683;50.038;8.078;2023-10-08T06:33:23;6.75;;;4.05;;
23490;SDS011;14683;50.038;8.078;2023-10-08T06:36:27;12.93;;;4.25;;
23490;SDS011;14683;50.038;8.078;2023-10-08T06:39:30;6.32;;;3.67;;
23490;SDS011;14683;50.038;8.078;2023-10-08T06:42:47;8.32;;;4.60;;
23490;SDS011;14683;50.038;8.078;2023-10-08T06:45:52;7.45;;;4.10;;
23490;SDS011;14683;50.038;8.078;2023-10-08T06:48:53;6.97;;;4.22;;
23490;SDS011;14683;50.038;8.078;2023-10-08T06:51:54;8.65;;;4.05;;
23490;SDS011;14683;50.038;8.078;2023-10-08T06:54:55;5.65;;;4.07;;
23490;SDS011;14683;50.038;8.078;2023-10-08T06:57:57;4.78;;;3.75;;
23490;SDS011;14683;50.038;8.078;2023-10-08T07:00:58;7.78;;;4.25;;
23490;SDS011;14683;50.038;8.078;2023-10-08T07:03:59;8.07;;;4.65;;
23490;SDS011;14683;50.038;8.078;2023-10-08T07:07:07;7.57;;;3.95;;
23490;SDS011;14683;50.038;8.078;2023-10-08T07:10:10;6.22;;;3.83;;
23490;SDS011;14683;50.038;8.078;2023-10-08T07:13:11;5.38;;;3.75;;
23490;SDS011;14683;50.038;8.078;2023-10-08T07:16:12;5.35;;;3.63;;
23490;SDS011;14683;50.038;8.078;2023-10-08T07:19:18;6.82;;;4.20;;
23490;SDS011;14683;50.038;8.078;2023-10-08T07:22:19;6.82;;;4.35;;
23490;SDS011;14683;50.038;8.078;2023-10-08T07:25:23;6.82;;;4.47;;
23490;SDS011;14683;50.038;8.078;2023-10-08T07:28:24;6.07;;;3.63;;
23490;SDS011;14683;50.038;8.078;2023-10-08T07:31:27;4.90;;;3.60;;
23490;SDS011;14683;50.038;8.078;2023-10-08T07:34:29;5.35;;;3.83;;
23490;SDS011;14683;50.038;8.078;2023-10-08T07:37:32;4.57;;;3.40;;
23490;SDS011;14683;50.038;8.078;2023-10-08T07:40:33;8.40;;;4.18;;
23490;SDS011;14683;50.038;8.078;2023-10-08T07:43:41;7.30;;;3.88;;
23490;SDS011;14683;50.038;8.078;2023-10-08T07:47:11;5.95;;;3.90;;
23490;SDS011;14683;50.038;8.078;2023-10-08T07:50:14;5.40;;;3.72;;
23490;SDS011;14683;50.038;8.078;2023-10-08T07:53:17;7.15;;;3.97;;
23490;SDS011;14683;50.038;8.078;2023-10-08T07:56:21;7.60;;;4.63;;
23490;SDS011;14683;50.038;8.078;2023-10-08T07:59:25;4.55;;;3.85;;
23490;SDS011;14683;50.038;8.078;2023-10-08T08:02:26;6.03;;;3.65;;
23490;SDS011;14683;50.038;8.078;2023-10-08T08:05:28;5.90;;;3.92;;
23490;SDS011;14683;50.038;8.078;2023-10-08T08:08:29;8.68;;;4.72;;
23490;SDS011;14683;50.038;8.078;2023-10-08T08:11:30;4.85;;;3.47;;
23490;SDS011;14683;50.038;8.078;2023-10-08T08:14:31;5.40;;;4.13;;
23490;SDS011;14683;50.038;8.078;2023-10-08T08:17:32;8.15;;;4.18;;
23490;SDS011;14683;50.038;8.078;2023-10-08T08:20:37;11.00;;;5.22;;
23490;SDS011;14683;50.038;8.078;2023-10-08T08:23:45;9.18;;;4.80;;
23490;SDS011;14683;50.038;8.078;2023-10-08T08:26:49;6.97;;;4.10;;
23490;SDS011;14683;50.038;8.078;2023-10-08T08:30:09;8.32;;;3.95;;
23490;SDS011;14683;50.038;8.078;2023-10-08T08:33:11;7.22;;;4.20;;
23490;SDS011;14683;50.038;8.078;2023-10-08T08:36:12;8.82;;;3.95;;
23490;SDS011;14683;50.038;8.078;2023-10-08T08:39:13;6.20;;;3.88;;
23490;SDS011;14683;50.038;8.078;2023-10-08T08:42:28;5.78;;;4.10;;
23490;SDS011;14683;50.038;8.078;2023-10-08T08:45:31;7.32;;;3.95;;
23490;SDS011;14683;50.038;8.078;2023-10-08T08:48:34;7.15;;;3.72;;
23490;SDS011;14683;50.038;8.078;2023-10-08T08:51:37;7.32;;;4.68;;
23490;SDS011;14683;50.038;8.078;2023-10-08T08:54:39;7.30;;;4.20;;
23490;SDS011;14683;50.038;8.078;2023-10-08T08:57:47;5.30;;;4.15;;
23490;SDS011;14683;50.038;8.078;2023-10-08T09:00:50;9.23;;;4.60;;
23490;SDS011;14683;50.038;8.078;2023-10-08T09:03:58;8.45;;;4.50;;
23490;SDS011;14683;50.038;8.078;2023-10-08T09:07:05;4.35;;;3.72;;
23490;SDS011;14683;50.038;8.078;2023-10-08T09:10:07;8.85;;;4.80;;
23490;SDS011;14683;50.038;8.078;2023-10-08T09:13:13;4.95;;;3.90;;
23490;SDS011;14683;50.038;8.078;2023-10-08T09:16:14;7.65;;;3.97;;
23490;SDS011;14683;50.038;8.078;2023-10-08T09:19:16;8.20;;;4.43;;
23490;SDS011;14683;50.038;8.078;2023-10-08T09:22:20;8.32;;;4.85;;
23490;SDS011;14683;50.038;8.078;2023-10-08T09:25:22;8.07;;;4.55;;
23490;SDS011;14683;50.038;8.078;2023-10-08T09:28:23;9.48;;;4.45;;
23490;SDS011;14683;50.038;8.078;2023-10-08T09:31:25;7.85;;;4.40;;
23490;SDS011;14683;50.038;8.078;2023-10-08T09:34:28;8.60;;;4.40;;
23490;SDS011;14683;50.038;8.078;2023-10-08T09:37:31;6.28;;;3.95;;
23490;SDS011;14683;50.038;8.078;2023-10-08T09:40:36;6.53;;;4.40;;
23490;SDS011;14683;50.038;8.078;2023-10-08T09:43:38;5.45;;;3.80;;
23490;SDS011;14683;50.038;8.078;2023-10-08T09:46:42;5.47;;;4.00;;
23490;SDS011;14683;50.038;8.078;2023-10-08T09:55:57;5.78;;;4.38;;
23490;SDS011;14683;50.038;8.078;2023-10-08T09:58:58;5.80;;;4.05;;
23490;SDS011;14683;50.038;8.078;2023-10-08T10:02:00;7.60;;;4.47;;
23490;SDS011;14683;50.038;8.078;2023-10-08T10:05:03;5.75;;;4.07;;
23490;SDS011;14683;50.038;8.078;2023-10-08T10:08:07;6.38;;;4.10;;
23490;SDS011;14683;50.038;8.078;2023-10-08T10:11:10;6.43;;;4.30;;
23490;SDS011;14683;50.038;8.078;2023-10-08T10:14:12;9.93;;;4.53;;
23490;SDS011;14683;50.038;8.078;2023-10-08T10:17:15;6.05;;;3.83;;
23490;SDS011;14683;50.038;8.078;2023-10-08T10:20:21;8.18;;;4.57;;
23490;SDS011;14683;50.038;8.078;2023-10-08T10:27:10;5.72;;;4.18;;
23490;SDS011;14683;50.038;8.078;2023-10-08T10:30:18;7.03;;;4.03;;
23490;SDS011;14683;50.038;8.078;2023-10-08T10:33:20;7.35;;;4.25;;
23490;SDS011;14683;50.038;8.078;2023-10-08T10:36:21;7.05;;;4.07;;
23490;SDS011;14683;50.038;8.078;2023-10-08T10:39:23;6.85;;;4.60;;
23490;SDS011;14683;50.038;8.078;2023-10-08T10:42:30;8.30;;;4.35;;
23490;SDS011;14683;50.038;8.078;2023-10-08T10:45:39;6.53;;;4.35;;
23490;SDS011;14683;50.038;8.078;2023-10-08T10:48:48;6.55;;;3.92;;
23490;SDS011;14683;50.038;8.078;2023-10-08T10:52:07;7.32;;;4.68;;
23490;SDS011;14683;50.038;8.078;2023-10-08T10:55:13;5.97;;;4.40;;
23490;SDS011;14683;50.038;8.078;2023-10-08T10:58:15;8.98;;;4.20;;
23490;SDS011;14683;50.038;8.078;2023-10-08T11:01:28;7.15;;;3.92;;
23490;SDS011;14683;50.038;8.078;2023-10-08T11:04:45;7.10;;;4.38;;
23490;SDS011;14683;50.038;8.078;2023-10-08T11:07:48;5.53;;;4.10;;
23490;SDS011;14683;50.038;8.078;2023-10-08T11:10:49;7.80;;;4.57;;
23490;SDS011;14683;50.038;8.078;2023-10-08T11:13:52;8.50;;;4.75;;
23490;SDS011;14683;50.038;8.078;2023-10-08T11:17:08;25.63;;;8.98;;
23490;SDS011;14683;50.038;8.078;2023-10-08T11:20:24;16.88;;;6.75;;
23490;SDS011;14683;50.038;8.078;2023-10-08T11:26:36;9.18;;;4.65;;
23490;SDS011;14683;50.038;8.078;2023-10-08T11:29:40;9.93;;;4.65;;
23490;SDS011;14683;50.038;8.078;2023-10-08T11:32:45;8.07;;;4.95;;
23490;SDS011;14683;50.038;8.078;2023-10-08T11:35:56;12.52;;;4.70;;
23490;SDS011;14683;50.038;8.078;2023-10-08T11:39:08;7.38;;;4.18;;
23490;SDS011;14683;50.038;8.078;2023-10-08T11:42:14;7.07;;;4.55;;
23490;SDS011;14683;50.038;8.078;2023-10-08T11:45:38;6.85;;;4.78;;
23490;SDS011;14683;50.038;8.078;2023-10-08T11:48:39;5.90;;;4.05;;
23490;SDS011;14683;50.038;8.078;2023-10-08T11:51:45;7.72;;;3.97;;
23490;SDS011;14683;50.038;8.078;2023-10-08T11:54:46;7.32;;;4.47;;
23490;SDS011;14683;50.038;8.078;2023-10-08T11:57:49;8.13;;;4.47;;
23490;SDS011;14683;50.038;8.078;2023-10-08T12:00:51;8.73;;;4.35;;
23490;SDS011;14683;50.038;8.078;2023-10-08T12:03:53;15.20;;;4.60;;
23490;SDS011;14683;50.038;8.078;2023-10-08T12:07:00;6.15;;;4.20;;
23490;SDS011;14683;50.038;8.078;2023-10-08T12:10:07;6.15;;;4.15;;
23490;SDS011;14683;50.038;8.078;2023-10-08T12:13:11;6.65;;;4.07;;
23490;SDS011;14683;50.038;8.078;2023-10-08T12:16:16;6.65;;;4.13;;
23490;SDS011;14683;50.038;8.078;2023-10-08T12:19:21;8.25;;;4.18;;
23490;SDS011;14683;50.038;8.078;2023-10-08T12:22:23;6.82;;;4.28;;
23490;SDS011;14683;50.038;8.078;2023-10-08T12:25:24;9.00;;;4.38;;
23490;SDS011;14683;50.038;8.078;2023-10-08T12:28:25;9.57;;;4.28;;
23490;SDS011;14683;50.038;8.078;2023-10-08T12:31:29;6.45;;;4.60;;
23490;SDS011;14683;50.038;8.078;2023-10-08T12:34:31;7.32;;;4.18;;
23490;SDS011;14683;50.038;8.078;2023-10-08T12:37:35;5.57;;;3.85;;
23490;SDS011;14683;50.038;8.078;2023-10-08T12:40:37;6.88;;;4.63;;
23490;SDS011;14683;50.038;8.078;2023-10-08T12:43:53;8.13;;;4.43;;
23490;SDS011;14683;50.038;8.078;2023-10-08T12:46:54;6.72;;;4.50;;
23490;SDS011;14683;50.038;8.078;2023-10-08T12:49:59;5.80;;;4.40;;
23490;SDS011;14683;50.038;8.078;2023-10-08T12:53:00;6.75;;;4.13;;
23490;SDS011;14683;50.038;8.078;2023-10-08T12:56:05;5.07;;;3.90;;
23490;SDS011;14683;50.038;8.078;2023-10-08T12:59:07;6.00;;;4.05;;
23490;SDS011;14683;50.038;8.078;2023-10-08T13:02:08;7.88;;;4.47;;
23490;SDS011;14683;50.038;8.078;2023-10-08T13:05:11;9.23;;;5.00;;
23490;SDS011;14683;50.038;8.078;2023-10-08T13:08:16;7.05;;;4.50;;
23490;SDS011;14683;50.038;8.078;2023-10-08T13:11:21;17.17;;;5.57;;
23490;SDS011;14683;50.038;8.078;2023-10-08T13:14:24;6.28;;;3.85;;
23490;SDS011;14683;50.038;8.078;2023-10-08T13:17:32;9.60;;;4.40;;
23490;SDS011;14683;50.038;8.078;2023-10-08T13:20:53;9.40;;;4.65;;
23490;SDS011;14683;50.038;8.078;2023-10-08T13:23:54;7.22;;;4.38;;
23490;SDS011;14683;50.038;8.078;2023-10-08T13:27:00;10.50;;;4.53;;
23490;SDS011;14683;50.038;8.078;2023-10-08T13:30:02;7.07;;;4.68;;
23490;SDS011;14683;50.038;8.078;2023-10-08T13:33:06;8.73;;;4.78;;
23490;SDS011;14683;50.038;8.078;2023-10-08T13:36:11;10.18;;;4.20;;
23490;SDS011;14683;50.038;8.078;2023-10-08T13:39:14;9.02;;;4.10;;
23490;SDS011;14683;50.038;8.078;2023-10-08T13:42:19;6.47;;;4.28;;
23490;SDS011;14683;50.038;8.078;2023-10-08T13:45:21;5.55;;;3.30;;
23490;SDS011;14683;50.038;8.078;2023-10-08T13:48:27;10.95;;;4.90;;
23490;SDS011;14683;50.038;8.078;2023-10-08T13:51:28;6.75;;;4.32;;
23490;SDS011;14683;50.038;8.078;2023-10-08T13:54:29;8.65;;;4.90;;
23490;SDS011;14683;50.038;8.078;2023-10-08T13:57:31;5.70;;;4.15;;
23490;SDS011;14683;50.038;8.078;2023-10-08T14:00:33;9.38;;;4.80;;
23490;SDS011;14683;50.038;8.078;2023-10-08T14:03:38;9.00;;;4.55;;
23490;SDS011;14683;50.038;8.078;2023-10-08T14:06:41;7.80;;;3.90;;
23490;SDS011;14683;50.038;8.078;2023-10-08T14:09:48;7.60;;;4.75;;
23490;SDS011;14683;50.038;8.078;2023-10-08T14:12:51;10.05;;;3.63;;
23490;SDS011;14683;50.038;8.078;2023-10-08T14:15:52;6.35;;;3.78;;
23490;SDS011;14683;50.038;8.078;2023-10-08T14:18:59;8.27;;;4.18;;
23490;SDS011;14683;50.038;8.078;2023-10-08T14:22:05;5.63;;;3.75;;
23490;SDS011;14683;50.038;8.078;2023-10-08T14:25:12;8.07;;;4.57;;
23490;SDS011;14683;50.038;8.078;2023-10-08T14:28:14;9.38;;;4.40;;
23490;SDS011;14683;50.038;8.078;2023-10-08T14:31:22;8.68;;;4.03;;
23490;SDS011;14683;50.038;8.078;2023-10-08T14:34:27;7.97;;;5.25;;
23490;SDS011;14683;50.038;8.078;2023-10-08T14:37:47;6.72;;;4.28;;
23490;SDS011;14683;50.038;8.078;2023-10-08T14:41:07;8.93;;;3.80;;
23490;SDS011;14683;50.038;8.078;2023-10-08T14:44:26;6.88;;;3.50;;
23490;SDS011;14683;50.038;8.078;2023-10-08T14:47:28;6.30;;;4.00;;
23490;SDS011;14683;50.038;8.078;2023-10-08T14:50:29;7.25;;;4.20;;
23490;SDS011;14683;50.038;8.078;2023-10-08T14:53:33;7.88;;;4.40;;
23490;SDS011;14683;50.038;8.078;2023-10-08T14:56:39;9.02;;;5.40;;
23490;SDS011;14683;50.038;8.078;2023-10-08T14:59:40;9.05;;;4.38;;
23490;SDS011;14683;50.038;8.078;2023-10-08T15:02:42;7.47;;;4.38;;
23490;SDS011;14683;50.038;8.078;2023-10-08T15:05:43;9.35;;;4.30;;
23490;SDS011;14683;50.038;8.078;2023-10-08T15:08:47;9.45;;;4.43;;
23490;SDS011;14683;50.038;8.078;2023-10-08T15:11:50;8.88;;;4.30;;
23490;SDS011;14683;50.038;8.078;2023-10-08T15:14:54;7.80;;;4.20;;
23490;SDS011;14683;50.038;8.078;2023-10-08T15:17:55;7.57;;;4.15;;
23490;SDS011;14683;50.038;8.078;2023-10-08T15:20:56;7.55;;;3.92;;
23490;SDS011;14683;50.038;8.078;2023-10-08T15:23:58;5.53;;;3.70;;
23490;SDS011;14683;50.038;8.078;2023-10-08T15:27:06;8.63;;;3.92;;
23490;SDS011;14683;50.038;8.078;2023-10-08T15:30:08;5.93;;;3.78;;
23490;SDS011;14683;50.038;8.078;2023-10-08T15:33:13;5.95;;;3.90;;
23490;SDS011;14683;50.038;8.078;2023-10-08T15:36:14;6.32;;;3.78;;
23490;SDS011;14683;50.038;8.078;2023-10-08T15:39:15;6.38;;;4.15;;
23490;SDS011;14683;50.038;8.078;2023-10-08T15:42:23;6.03;;;3.78;;
23490;SDS011;14683;50.038;8.078;2023-10-08T15:45:24;6.50;;;3.80;;
23490;SDS011;14683;50.038;8.078;2023-10-08T15:48:26;7.55;;;4.07;;
23490;SDS011;14683;50.038;8.078;2023-10-08T15:51:27;6.55;;;3.47;;
23490;SDS011;14683;50.038;8.078;2023-10-08T15:54:30;7.28;;;3.80;;
23490;SDS011;14683;50.038;8.078;2023-10-08T15:57:31;6.47;;;3.83;;
23490;SDS011;14683;50.038;8.078;2023-10-08T16:00:32;8.10;;;4.30;;
23490;SDS011;14683;50.038;8.078;2023-10-08T16:03:33;6.00;;;3.78;;
23490;SDS011;14683;50.038;8.078;2023-10-08T16:06:35;5.65;;;3.78;;
23490;SDS011;14683;50.038;8.078;2023-10-08T16:09:36;5.45;;;4.03;;
23490;SDS011;14683;50.038;8.078;2023-10-08T16:12:37;5.00;;;3.78;;
23490;SDS011;14683;50.038;8.078;2023-10-08T16:15:38;7.10;;;4.78;;
23490;SDS011;14683;50.038;8.078;2023-10-08T16:18:41;7.88;;;4.03;;
23490;SDS011;14683;50.038;8.078;2023-10-08T16:21:42;6.13;;;3.65;;
23490;SDS011;14683;50.038;8.078;2023-10-08T16:24:45;5.78;;;4.15;;
23490;SDS011;14683;50.038;8.078;2023-10-08T16:27:47;6.93;;;4.22;;
23490;SDS011;14683;50.038;8.078;2023-10-08T16:30:49;8.57;;;4.68;;
23490;SDS011;14683;50.038;8.078;2023-10-08T16:33:54;8.32;;;5.18;;
23490;SDS011;14683;50.038;8.078;2023-10-08T16:36:55;16.55;;;11.20;;
23490;SDS011;14683;50.038;8.078;2023-10-08T16:39:56;10.18;;;6.53;;
23490;SDS011;14683;50.038;8.078;2023-10-08T16:42:57;6.68;;;4.85;;
23490;SDS011;14683;50.038;8.078;2023-10-08T16:45:59;8.18;;;5.57;;
23490;SDS011;14683;50.038;8.078;2023-10-08T16:49:06;6.95;;;4.90;;
23490;SDS011;14683;50.038;8.078;2023-10-08T16:52:07;5.95;;;4.72;;
23490;SDS011;14683;50.038;8.078;2023-10-08T16:55:08;9.80;;;4.80;;
23490;SDS011;14683;50.038;8.078;2023-10-08T16:58:09;6.95;;;5.07;;
23490;SDS011;14683;50.038;8.078;2023-10-08T17:01:11;9.00;;;5.50;;
23490;SDS011;14683;50.038;8.078;2023-10-08T17:04:14;8.13;;;5.28;;
23490;SDS011;14683;50.038;8.078;2023-10-08T17:07:16;9.00;;;5.32;;
23490;SDS011;14683;50.038;8.078;2023-10-08T17:10:17;8.95;;;5.30;;
23490;SDS011;14683;50.038;8.078;2023-10-08T17:13:18;9.38;;;5.15;;
23490;SDS011;14683;50.038;8.078;2023-10-08T17:16:19;8.13;;;4.95;;
23490;SDS011;14683;50.038;8.078;2023-10-08T17:19:20;7.82;;;4.90;;
23490;SDS011;14683;50.038;8.078;2023-10-08T17:22:24;7.85;;;4.60;;
23490;SDS011;14683;50.038;8.078;2023-10-08T17:25:26;8.85;;;5.03;;
23490;SDS011;14683;50.038;8.078;2023-10-08T17:28:27;10.32;;;5.60;;
23490;SDS011;14683;50.038;8.078;2023-10-08T17:31:28;8.18;;;5.43;;
23490;SDS011;14683;50.038;8.078;2023-10-08T17:34:34;11.00;;;5.78;;
23490;SDS011;14683;50.038;8.078;2023-10-08T17:37:36;9.48;;;6.40;;
23490;SDS011;14683;50.038;8.078;2023-10-08T17:40:40;7.63;;;5.03;;
23490;SDS011;14683;50.038;8.078;2023-10-08T17:43:41;9.32;;;5.90;;
23490;SDS011;14683;50.038;8.078;2023-10-08T17:46:42;10.25;;;5.78;;
23490;SDS011;14683;50.038;8.078;2023-10-08T17:49:46;8.00;;;5.15;;
23490;SDS011;14683;50.038;8.078;2023-10-08T17:52:48;11.05;;;5.97;;
23490;SDS011;14683;50.038;8.078;2023-10-08T17:55:52;6.45;;;5.53;;
23490;SDS011;14683;50.038;8.078;2023-10-08T17:58:54;8.48;;;5.32;;
23490;SDS011;14683;50.038;8.078;2023-10-08T18:01:56;11.45;;;6.05;;
23490;SDS011;14683;50.038;8.078;2023-10-08T18:04:57;11.65;;;5.82;;
23490;SDS011;14683;50.038;8.078;2023-10-08T18:07:58;7.55;;;5.00;;
23490;SDS011;14683;50.038;8.078;2023-10-08T18:10:59;10.70;;;6.22;;
23490;SDS011;14683;50.038;8.078;2023-10-08T18:14:02;13.43;;;7.32;;
23490;SDS011;14683;50.038;8.078;2023-10-08T18:17:03;9.10;;;6.40;;
23490;SDS011;14683;50.038;8.078;2023-10-08T18:20:06;9.32;;;6.50;;
23490;SDS011;14683;50.038;8.078;2023-10-08T18:23:12;8.75;;;6.00;;
23490;SDS011;14683;50.038;8.078;2023-10-08T18:26:13;8.07;;;5.32;;
23490;SDS011;14683;50.038;8.078;2023-10-08T18:29:16;9.68;;;5.13;;
23490;SDS011;14683;50.038;8.078;2023-10-08T18:32:17;11.25;;;6.20;;
23490;SDS011;14683;50.038;8.078;2023-10-08T18:35:18;9.15;;;5.28;;
23490;SDS011;14683;50.038;8.078;2023-10-08T18:38:20;9.75;;;5.80;;
23490;SDS011;14683;50.038;8.078;2023-10-08T18:41:21;9.48;;;5.72;;
23490;SDS011;14683;50.038;8.078;2023-10-08T18:44:24;11.65;;;5.78;;
23490;SDS011;14683;50.038;8.078;2023-10-08T18:47:26;9.68;;;6.47;;
23490;SDS011;14683;50.038;8.078;2023-10-08T18:50:28;9.18;;;6.50;;
23490;SDS011;14683;50.038;8.078;2023-10-08T18:53:31;9.70;;;5.88;;
23490;SDS011;14683;50.038;8.078;2023-10-08T18:56:33;8.30;;;5.18;;
23490;SDS011;14683;50.038;8.078;2023-10-08T18:59:34;7.93;;;5.13;;
23490;SDS011;14683;50.038;8.078;2023-10-08T19:02:39;11.93;;;5.47;;
23490;SDS011;14683;50.038;8.078;2023-10-08T19:05:41;9.90;;;5.38;;
23490;SDS011;14683;50.038;8.078;2023-10-08T19:08:42;10.85;;;5.43;;
23490;SDS011;14683;50.038;8.078;2023-10-08T19:11:44;12.35;;;5.32;;
23490;SDS011;14683;50.038;8.078;2023-10-08T19:14:45;7.75;;;5.43;;
23490;SDS011;14683;50.038;8.078;2023-10-08T19:17:46;9.77;;;5.05;;
23490;SDS011;14683;50.038;8.078;2023-10-08T19:20:50;10.27;;;5.88;;
23490;SDS011;14683;50.038;8.078;2023-10-08T19:23:52;9.95;;;6.32;;
23490;SDS011;14683;50.038;8.078;2023-10-08T19:26:53;12.85;;;6.72;;
23490;SDS011;14683;50.038;8.078;2023-10-08T19:29:56;10.77;;;5.90;;
23490;SDS011;14683;50.038;8.078;2023-10-08T19:32:59;7.90;;;5.40;;
23490;SDS011;14683;50.038;8.078;2023-10-08T19:36:02;11.77;;;5.40;;
23490;SDS011;14683;50.038;8.078;2023-10-08T19:39:04;7.85;;;5.07;;
23490;SDS011;14683;50.038;8.078;2023-10-08T19:42:07;11.15;;;5.03;;
23490;SDS011;14683;50.038;8.078;2023-10-08T19:45:09;12.13;;;5.57;;
23490;SDS011;14683;50.038;8.078;2023-10-08T19:48:15;9.38;;;4.97;;
23490;SDS011;14683;50.038;8.078;2023-10-08T19:51:16;7.25;;;4.82;;
23490;SDS011;14683;50.038;8.078;2023-10-08T19:54:17;8.10;;;4.95;;
23490;SDS011;14683;50.038;8.078;2023-10-08T19:57:19;9.32;;;5.15;;
23490;SDS011;14683;50.038;8.078;2023-10-08T20:00:20;7.35;;;4.55;;
23490;SDS011;14683;50.038;8.078;2023-10-08T20:03:27;8.73;;;4.63;;
23490;SDS011;14683;50.038;8.078;2023-10-08T20:06:28;11.25;;;5.55;;
23490;SDS011;14683;50.038;8.078;2023-10-08T20:09:31;12.05;;;5.65;;
23490;SDS011;14683;50.038;8.078;2023-10-08T20:12:32;8.63;;;5.13;;
23490;SDS011;14683;50.038;8.078;2023-10-08T20:15:34;10.68;;;5.05;;
23490;SDS011;14683;50.038;8.078;2023-10-08T20:18:35;8.73;;;5.50;;
23490;SDS011;14683;50.038;8.078;2023-10-08T20:21:36;7.53;;;5.45;;
23490;SDS011;14683;50.038;8.078;2023-10-08T20:24:40;10.00;;;5.00;;
23490;SDS011;14683;50.038;8.078;2023-10-08T20:27:43;6.93;;;4.75;;
23490;SDS011;14683;50.038;8.078;2023-10-08T20:30:45;8.88;;;5.20;;
23490;SDS011;14683;50.038;8.078;2023-10-08T20:33:46;7.18;;;5.13;;
23490;SDS011;14683;50.038;8.078;2023-10-08T20:36:47;10.15;;;5.32;;
23490;SDS011;14683;50.038;8.078;2023-10-08T20:39:48;8.52;;;5.22;;
23490;SDS011;14683;50.038;8.078;2023-10-08T20:42:50;8.73;;;5.40;;
23490;SDS011;14683;50.038;8.078;2023-10-08T20:45:52;12.48;;;5.72;;
23490;SDS011;14683;50.038;8.078;2023-10-08T20:48:53;7.38;;;4.80;;
23490;SDS011;14683;50.038;8.078;2023-10-08T20:51:54;7.80;;;5.03;;
23490;SDS011;14683;50.038;8.078;2023-10-08T20:54:55;6.70;;;5.28;;
